Time;durP1;ratioP1;P1;durP2;ratioP2;P2;SDS_P1;SDS_P2;PMS_P1;PMS_P2;Temp;Humidity;BMP_temperature;BMP_pressure;BME280_temperature;BME280_humidity;BME280_pressure;Samples;Min_cycle;Max_cycle;Signal;HPM_P1;HPM_P2
2023/03/25 00:01:00;;;;;;;19.33;2.53;;;;;;;12.76;61.05;100152.09;5103927;28;20061;-51
2023/03/25 00:03:29;;;;;;;18.88;2.58;;;;;;;13.09;60.49;100155.34;5105357;27;20436;-58
2023/03/25 00:05:56;;;;;;;18.10;2.50;;;;;;;13.16;60.02;100147.47;5104896;27;20115;-45
2023/03/25 00:08:23;;;;;;;18.17;2.63;;;;;;;12.74;61.20;100169.56;5107555;27;20035;-45
2023/03/25 00:10:53;;;;;;;20.67;3.17;;;;;;;12.61;61.43;100160.06;5102192;28;20067;-44
2023/03/25 00:13:20;;;;;;;19.98;2.65;;;;;;;12.75;61.48;100150.34;5108148;27;20093;-45
2023/03/25 00:15:46;;;;;;;17.90;2.40;;;;;;;12.73;61.33;100140.81;5103986;28;20039;-45
2023/03/25 00:18:12;;;;;;;20.83;2.92;;;;;;;12.72;61.25;100144.28;5108758;27;20028;-44
2023/03/25 00:20:41;;;;;;;15.48;2.30;;;;;;;12.94;60.62;100149.34;5103847;28;20060;-46
2023/03/25 00:23:07;;;;;;;17.42;2.55;;;;;;;12.74;60.94;100137.31;5106680;27;20052;-44
2023/03/25 00:25:32;;;;;;;12.60;2.13;;;;;;;12.83;61.39;100145.94;5107125;28;20027;-45
2023/03/25 00:27:58;;;;;;;19.45;2.65;;;;;;;12.74;61.24;100135.56;5102847;27;20027;-45
2023/03/25 00:30:23;;;;;;;19.63;3.00;;;;;;;12.81;60.46;100158.16;5105480;28;20047;-59
2023/03/25 00:32:51;;;;;;;24.48;2.95;;;;;;;12.98;60.35;100138.00;5102853;28;20131;-46
2023/03/25 00:35:20;;;;;;;24.48;2.90;;;;;;;12.93;60.81;100137.13;5106257;27;20039;-46
2023/03/25 00:37:46;;;;;;;18.45;2.33;;;;;;;12.39;62.37;100140.13;5104036;27;20076;-45
2023/03/25 00:40:13;;;;;;;18.38;2.63;;;;;;;12.75;61.54;100150.34;5107163;27;20039;-45
2023/03/25 00:42:43;;;;;;;20.10;2.78;;;;;;;12.31;62.56;100173.31;5101624;27;20032;-46
2023/03/25 00:45:12;;;;;;;19.58;2.70;;;;;;;12.55;62.06;100147.91;5105097;27;20028;-44
2023/03/25 00:47:37;;;;;;;24.58;2.88;;;;;;;12.98;61.08;100151.09;5101207;27;20086;-44
2023/03/25 00:50:03;;;;;;;21.85;3.10;;;;;;;12.63;62.08;100139.97;5104560;28;20051;-46
2023/03/25 00:52:28;;;;;;;19.42;2.72;;;;;;;12.59;62.59;100146.13;5100402;28;20432;-43
2023/03/25 00:54:54;;;;;;;18.42;2.72;;;;;;;12.89;61.61;100138.06;5104689;28;20028;-43
2023/03/25 00:57:19;;;;;;;21.98;3.20;;;;;;;12.49;62.75;100137.47;5105355;27;20058;-43
2023/03/25 00:59:45;;;;;;;18.40;2.53;;;;;;;12.83;62.11;100130.25;5100925;28;20058;-44
2023/03/25 01:02:10;;;;;;;15.52;2.75;;;;;;;13.05;62.01;100132.72;5104502;27;20028;-48
2023/03/25 01:04:38;;;;;;;18.08;2.78;;;;;;;12.75;63.18;100133.78;5100789;27;20034;-43
2023/03/25 01:07:03;;;;;;;15.35;2.67;;;;;;;12.75;63.93;100139.91;5103045;28;20039;-41
2023/03/25 01:09:30;;;;;;;16.65;2.42;;;;;;;12.50;64.63;100128.72;5101113;28;20031;-45
2023/03/25 01:11:55;;;;;;;18.42;2.67;;;;;;;12.58;64.34;100129.56;5104863;27;20146;-45
2023/03/25 01:14:23;;;;;;;15.15;2.50;;;;;;;12.64;64.18;100144.34;5104562;27;20019;-46
2023/03/25 01:16:48;;;;;;;16.27;2.63;;;;;;;12.75;64.30;100144.25;5101944;27;20023;-45
2023/03/25 01:19:14;;;;;;;24.25;2.95;;;;;;;12.77;65.51;100142.50;5104498;27;20034;-46
2023/03/25 01:21:39;;;;;;;14.70;2.42;;;;;;;12.33;66.33;100151.50;5100580;27;20187;-48
2023/03/25 01:24:06;;;;;;;19.98;3.00;;;;;;;12.63;66.44;100139.97;5105278;27;20039;-44
2023/03/25 01:26:33;;;;;;;15.13;2.38;;;;;;;12.35;66.89;100141.03;5101193;28;20035;-45
2023/03/25 01:28:58;;;;;;;19.25;3.00;;;;;;;12.42;67.08;100140.13;5106003;27;20035;-45
2023/03/25 01:31:28;;;;;;;15.90;2.65;;;;;;;12.09;67.93;100139.41;5105321;28;20503;-51
2023/03/25 01:33:57;;;;;;;18.65;3.40;;;;;;;12.11;67.78;100136.81;5101157;28;20046;-46
2023/03/25 01:36:23;;;;;;;14.52;2.80;;;;;;;12.35;67.33;100131.44;5104823;28;20028;-46
2023/03/25 01:38:49;;;;;;;17.15;2.70;;;;;;;12.33;67.09;100132.31;5101828;28;20059;-43
2023/03/25 01:41:15;;;;;;;18.70;2.78;;;;;;;12.17;67.42;100126.31;5104801;28;20031;-45
2023/03/25 01:43:40;;;;;;;16.90;3.03;;;;;;;12.30;66.75;100138.47;5100244;28;20409;-42
2023/03/25 01:46:12;;;;;;;16.90;3.30;;;;;;;12.49;66.57;100132.25;5105139;27;20035;-44
2023/03/25 01:48:43;;;;;;;19.55;2.55;;;;;;;12.21;67.19;100133.25;5100276;27;20032;-43
2023/03/25 01:51:21;;;;;;;22.02;3.15;;;;;;;12.22;67.12;100139.34;5103882;27;20023;-44
2023/03/25 01:53:47;;;;;;;21.63;3.58;;;;;;;12.00;67.75;100128.16;5099015;27;20429;-44
2023/03/25 01:56:17;;;;;;;26.63;3.15;;;;;;;12.58;66.20;100132.19;5103788;28;20032;-44
2023/03/25 01:58:43;;;;;;;18.70;2.83;;;;;;;12.49;66.36;100120.91;5099569;28;20088;-45
2023/03/25 02:01:12;;;;;;;16.92;2.92;;;;;;;12.25;67.54;100121.94;5103471;28;20027;-45
2023/03/25 02:03:45;;;;;;;17.92;3.03;;;;;;;12.14;67.62;100124.59;5099888;28;20593;-45
2023/03/25 02:06:27;;;;;;;18.48;2.83;;;;;;;12.38;66.82;100115.72;5103583;28;20042;-43
2023/03/25 02:08:56;;;;;;;19.88;3.20;;;;;;;12.51;65.92;100108.69;5099827;28;20431;-42
2023/03/25 02:11:27;;;;;;;20.00;3.38;;;;;;;12.33;66.85;100106.19;5103999;28;20027;-46
2023/03/25 02:13:54;;;;;;;26.80;2.80;;;;;;;12.12;66.82;100112.41;5099701;27;20035;-44
2023/03/25 02:16:45;;;;;;;17.98;3.03;;;;;;;12.16;67.58;100112.38;5102924;28;20039;-43
2023/03/25 02:19:55;;;;;;;21.42;2.90;;;;;;;12.65;65.61;100111.22;5099965;28;20077;-47
2023/03/25 02:22:36;;;;;;;21.42;3.00;;;;;;;12.25;67.10;100113.22;5100246;28;20055;-48
2023/03/25 02:25:28;;;;;;;20.15;2.95;;;;;;;12.01;67.34;100107.25;5098128;28;20035;-44
2023/03/25 02:28:24;;;;;;;24.65;3.63;;;;;;;12.46;66.33;100107.84;5098982;28;20494;-47
2023/03/25 02:31:10;;;;;;;18.38;3.10;;;;;;;12.84;65.12;100099.72;5099346;28;20020;-43
2023/03/25 02:34:12;;;;;;;22.40;3.30;;;;;;;12.76;65.46;100098.91;5099159;28;20069;-43
2023/03/25 02:37:02;;;;;;;18.55;3.25;;;;;;;13.02;64.90;100089.13;5099883;28;20047;-44
2023/03/25 02:39:47;;;;;;;26.77;3.20;;;;;;;12.41;66.82;100112.25;5099543;28;20080;-45
2023/03/25 02:42:24;;;;;;;23.20;3.10;;;;;;;12.09;67.81;100102.84;5104714;28;20028;-45
2023/03/25 02:44:58;;;;;;;22.45;3.47;;;;;;;12.67;66.15;100109.47;5099644;28;20123;-46
2023/03/25 02:47:30;;;;;;;25.83;3.45;;;;;;;12.28;67.68;100092.28;5103928;28;20355;-47
2023/03/25 02:50:03;;;;;;;17.63;2.90;;;;;;;12.35;66.82;100087.03;5099691;27;20039;-45
2023/03/25 02:52:36;;;;;;;28.70;3.72;;;;;;;12.78;65.62;100086.72;5101930;28;20032;-45
2023/03/25 02:55:09;;;;;;;21.70;3.03;;;;;;;12.69;65.67;100092.88;5106438;28;20032;-49
2023/03/25 02:57:37;;;;;;;23.90;3.22;;;;;;;12.70;65.61;100086.75;5104317;28;20044;-45
2023/03/25 03:00:14;;;;;;;19.92;3.50;;;;;;;12.26;66.57;100092.28;5106836;28;20034;-43
2023/03/25 03:02:44;;;;;;;31.90;3.47;;;;;;;12.39;66.06;100093.06;5104556;28;20501;-43
2023/03/25 03:05:25;;;;;;;28.88;3.60;;;;;;;12.49;66.14;100074.72;5107386;28;20104;-45
2023/03/25 03:07:58;;;;;;;28.55;3.75;;;;;;;12.67;66.00;100073.72;5103120;28;20039;-49
2023/03/25 03:10:45;;;;;;;27.40;3.60;;;;;;;12.41;66.36;100068.69;5103200;28;20536;-55
2023/03/25 03:13:32;;;;;;;32.97;4.00;;;;;;;12.60;65.64;100075.53;5104282;28;20493;-43
2023/03/25 03:16:10;;;;;;;25.45;3.85;;;;;;;12.39;66.36;100054.75;5099874;28;20035;-44
2023/03/25 03:19:01;;;;;;;25.33;3.35;;;;;;;12.57;66.08;100072.03;5099067;28;20540;-42
2023/03/25 03:21:39;;;;;;;21.25;3.30;;;;;;;12.48;67.36;100079.97;5103677;28;20450;-45
2023/03/25 03:24:20;;;;;;;21.65;3.45;;;;;;;12.34;68.64;100085.28;5099716;28;20413;-46
2023/03/25 03:26:49;;;;;;;16.20;2.45;;;;;;;12.49;68.47;100077.34;5099759;28;20490;-44
2023/03/25 03:29:18;;;;;;;23.35;3.08;;;;;;;12.38;69.79;100076.53;5104275;28;20043;-44
2023/03/25 03:31:53;;;;;;;19.67;2.67;;;;;;;12.09;70.41;100081.94;5099122;28;20039;-43
2023/03/25 03:34:29;;;;;;;20.67;2.80;;;;;;;11.87;70.99;100072.47;5105023;28;20032;-44
2023/03/25 03:36:58;;;;;;;18.23;2.92;;;;;;;12.40;69.96;100080.00;5100266;28;20431;-45
2023/03/25 03:39:35;;;;;;;26.30;3.60;;;;;;;11.78;71.03;100090.78;5103141;28;20110;-44
2023/03/25 03:42:10;;;;;;;21.17;3.70;;;;;;;12.17;69.80;100080.16;5098378;28;20038;-46
2023/03/25 03:44:40;;;;;;;20.75;3.45;;;;;;;11.97;69.94;100092.44;5102592;27;20109;-46
2023/03/25 03:47:10;;;;;;;25.35;3.40;;;;;;;12.14;69.46;100097.59;5107317;27;20485;-45
2023/03/25 03:49:41;;;;;;;25.67;3.75;;;;;;;11.92;70.83;100091.59;5103692;28;20064;-45
2023/03/25 03:52:36;;;;;;;24.17;3.85;;;;;;;11.82;71.37;100086.44;5108088;27;20089;-43
2023/03/25 03:55:17;;;;;;;21.40;3.03;;;;;;;12.18;70.64;100075.81;5101205;27;20378;-43
2023/03/25 03:57:53;;;;;;;17.48;2.72;;;;;;;11.72;71.43;100075.97;5104660;27;20041;-47
2023/03/25 04:00:25;;;;;;;25.42;3.35;;;;;;;11.73;71.14;100093.44;5111649;27;20027;-45
2023/03/25 04:03:14;;;;;;;24.70;2.78;;;;;;;11.86;71.04;100096.00;5107077;27;20062;-43
2023/03/25 04:05:50;;;;;;;23.67;3.20;;;;;;;12.20;69.37;100092.31;5105697;27;20131;-46
2023/03/25 04:08:28;;;;;;;22.15;3.10;;;;;;;12.08;69.24;100092.38;5110226;27;20042;-46
2023/03/25 04:11:08;;;;;;;21.27;2.90;;;;;;;12.08;69.32;100088.03;5105666;27;20035;-44
2023/03/25 04:13:38;;;;;;;23.30;3.58;;;;;;;11.98;69.45;100090.72;5105055;27;20047;-47
2023/03/25 04:16:04;;;;;;;20.70;3.65;;;;;;;11.75;69.58;100088.22;5109084;27;20032;-44
2023/03/25 04:18:32;;;;;;;22.10;3.40;;;;;;;11.62;70.15;100094.31;5107156;27;20116;-43
2023/03/25 04:20:58;;;;;;;22.45;2.92;;;;;;;11.69;69.74;100101.25;5112398;28;20020;-45
2023/03/25 04:23:23;;;;;;;25.23;3.42;;;;;;;11.82;69.78;100092.53;5112133;27;20076;-44
2023/03/25 04:25:51;;;;;;;21.55;3.25;;;;;;;11.81;70.13;100082.97;5104966;27;20035;-47
2023/03/25 04:28:17;;;;;;;17.10;2.65;;;;;;;12.07;68.69;100086.31;5106788;27;20883;-44
2023/03/25 04:30:47;;;;;;;19.85;3.20;;;;;;;11.85;69.45;100087.28;5103248;27;20045;-46
2023/03/25 04:33:13;;;;;;;21.80;3.53;;;;;;;11.87;69.28;100087.28;5107177;28;20031;-44
2023/03/25 04:35:39;;;;;;;20.85;3.17;;;;;;;11.71;70.29;100095.13;5105109;28;20031;-43
2023/03/25 04:38:07;;;;;;;22.13;3.42;;;;;;;12.04;68.83;100096.78;5110301;27;20055;-45
2023/03/25 04:40:33;;;;;;;31.90;3.60;;;;;;;12.11;68.09;100101.09;5106173;27;20062;-48
2023/03/25 04:42:58;;;;;;;30.63;3.72;;;;;;;12.06;67.98;100104.63;5107424;27;20032;-43
2023/03/25 04:45:25;;;;;;;26.60;4.10;;;;;;;11.85;68.98;100102.09;5107039;27;20055;-57
2023/03/25 04:47:52;;;;;;;27.98;4.28;;;;;;;11.51;70.03;100093.47;5105316;27;20540;-43
2023/03/25 04:50:27;;;;;;;22.20;3.70;;;;;;;11.96;68.47;100092.44;5109285;27;20063;-44
2023/03/25 04:52:53;;;;;;;;;;;;;;;11.68;68.98;100103.00;5106558;27;20497;-43
2023/03/25 04:55:19;;;;;;;22.95;3.38;;;;;;;11.93;68.52;100105.53;5107709;28;19915;-45
2023/03/25 04:57:49;;;;;;;22.42;3.10;;;;;;;11.66;69.20;100117.78;5101482;28;20054;-45
2023/03/25 05:00:18;;;;;;;24.13;3.33;;;;;;;11.88;67.97;100115.16;5104972;28;20047;-45
2023/03/25 05:02:49;;;;;;;23.35;2.85;;;;;;;11.85;67.83;100116.00;5101525;27;22115;-44
2023/03/25 05:05:17;;;;;;;18.63;3.00;;;;;;;12.00;68.05;100109.88;5105680;27;20070;-45
2023/03/25 05:07:53;;;;;;;20.05;3.15;;;;;;;11.82;67.42;100109.94;5107368;22;20524;-40
2023/03/25 05:10:23;;;;;;;24.30;3.22;;;;;;;12.09;66.99;100108.06;5083908;28;20024;-41
2023/03/25 05:12:48;;;;;;;22.33;2.95;;;;;;;11.85;67.34;100118.63;5077753;28;20084;-40
2023/03/25 05:15:14;;;;;;;22.88;3.20;;;;;;;11.67;67.76;100116.03;5083471;28;20123;-41
2023/03/25 05:17:40;;;;;;;23.92;3.20;;;;;;;11.66;68.43;100109.06;5066745;28;20033;-41
2023/03/25 05:20:10;;;;;;;26.17;3.30;;;;;;;12.07;66.63;100114.19;5063829;28;20433;-41
2023/03/25 05:22:36;;;;;;;20.92;3.35;;;;;;;11.70;68.22;100118.66;5059823;28;20038;-42
2023/03/25 05:25:05;;;;;;;22.98;3.28;;;;;;;12.04;66.62;100102.00;5067379;28;20032;-41
2023/03/25 05:27:31;;;;;;;18.73;3.38;;;;;;;11.92;67.29;100112.50;5067433;28;20025;-41
2023/03/25 05:29:59;;;;;;;26.48;3.22;;;;;;;11.88;67.34;100121.25;5070088;28;20038;-41
2023/03/25 05:32:28;;;;;;;17.63;2.85;;;;;;;11.84;68.04;100122.09;5061082;28;20033;-41
2023/03/25 05:34:54;;;;;;;19.35;2.55;;;;;;;11.97;67.06;100123.78;5066105;28;20619;-42
2023/03/25 05:37:20;;;;;;;20.38;3.22;;;;;;;12.01;67.12;100127.28;5064850;28;20119;-44
2023/03/25 05:39:45;;;;;;;24.40;3.20;;;;;;;11.96;67.29;100123.78;5061106;28;20114;-41
2023/03/25 05:42:10;;;;;;;21.90;2.90;;;;;;;11.92;68.13;100127.31;5064881;28;20048;-42
2023/03/25 05:44:37;;;;;;;20.38;2.85;;;;;;;11.90;68.18;100129.91;5060911;28;20478;-41
2023/03/25 05:47:03;;;;;;;22.65;2.92;;;;;;;11.48;69.41;100128.28;5063659;28;20032;-43
2023/03/25 05:49:28;;;;;;;22.83;4.60;;;;;;;11.77;69.36;100138.69;5061452;28;20035;-40
2023/03/25 05:51:54;;;;;;;25.73;3.08;;;;;;;11.68;69.19;100138.66;5066333;28;20375;-39
2023/03/25 05:54:23;;;;;;;18.35;3.85;;;;;;;11.69;68.71;100135.19;5045415;28;20079;-40
2023/03/25 05:56:49;;;;;;;22.83;3.25;;;;;;;11.91;68.74;100138.63;5042045;28;20029;-41
2023/03/25 05:59:15;;;;;;;20.20;2.85;;;;;;;11.76;69.97;100143.03;5043557;28;20971;-41
2023/03/25 06:01:44;;;;;;;19.73;2.65;;;;;;;11.56;70.71;100139.56;5037952;28;20039;-42
2023/03/25 06:04:12;;;;;;;21.48;3.13;;;;;;;11.64;70.20;100147.41;5041348;28;20388;-40
2023/03/25 06:06:39;;;;;;;21.60;3.10;;;;;;;11.35;71.09;100144.81;5036790;28;20044;-40
2023/03/25 06:09:05;;;;;;;16.50;2.88;;;;;;;11.40;70.76;100151.78;5041599;28;20037;-40
2023/03/25 06:11:36;;;;;;;21.40;3.55;;;;;;;11.60;70.49;100150.88;5037581;28;20033;-41
2023/03/25 06:14:02;;;;;;;20.23;2.83;;;;;;;11.39;70.69;100150.06;5041136;28;20032;-40
2023/03/25 06:16:29;;;;;;;25.00;3.15;;;;;;;11.83;69.05;100156.09;5056524;28;20028;-42
2023/03/25 06:19:00;;;;;;;17.77;2.78;;;;;;;11.69;69.09;100153.47;5066387;28;20066;-42
2023/03/25 06:21:27;;;;;;;20.27;3.13;;;;;;;12.09;68.23;100155.09;5061780;28;20398;-38
2023/03/25 06:23:53;;;;;;;18.75;2.65;;;;;;;12.09;67.93;100155.09;5066250;28;20077;-40
2023/03/25 06:26:21;;;;;;;25.63;3.17;;;;;;;11.69;68.78;100164.78;5065662;28;20029;-43
2023/03/25 06:28:46;;;;;;;19.10;2.72;;;;;;;11.75;67.67;100162.19;5061310;28;20036;-42
2023/03/25 06:31:15;;;;;;;22.10;3.38;;;;;;;11.74;67.83;100159.59;5065364;28;20036;-41
2023/03/25 06:33:44;;;;;;;26.45;3.10;;;;;;;11.72;68.36;100169.13;5061409;28;20033;-44
2023/03/25 06:36:11;;;;;;;24.25;3.28;;;;;;;11.94;67.46;100152.56;5064810;28;20166;-43
2023/03/25 06:38:38;;;;;;;16.98;2.47;;;;;;;11.75;67.58;100156.09;5061228;28;20127;-41
2023/03/25 06:41:04;;;;;;;22.10;3.25;;;;;;;11.58;67.86;100156.13;5063250;28;20060;-44
2023/03/25 06:43:29;;;;;;;21.63;3.45;;;;;;;11.76;67.57;100165.69;5060415;28;20032;-44
2023/03/25 06:45:54;;;;;;;22.80;2.97;;;;;;;11.99;66.73;100152.53;5065188;28;20025;-40
2023/03/25 06:48:20;;;;;;;19.60;2.92;;;;;;;12.14;66.40;100161.16;5065408;28;20445;-39
2023/03/25 06:50:45;;;;;;;27.13;2.78;;;;;;;12.60;65.03;100153.97;5061826;28;20099;-40
2023/03/25 06:53:10;;;;;;;20.45;3.30;;;;;;;11.99;65.96;100156.00;5063361;28;20028;-41
2023/03/25 06:55:37;;;;;;;18.70;2.92;;;;;;;12.27;66.06;100175.03;5060370;28;20043;-40
2023/03/25 06:58:03;;;;;;;24.13;3.28;;;;;;;12.25;65.24;100173.34;5061856;28;20089;-41
2023/03/25 07:00:28;;;;;;;21.35;3.05;;;;;;;12.01;65.73;100176.91;5057800;28;20051;-41
2023/03/25 07:02:54;;;;;;;27.10;3.22;;;;;;;12.04;65.25;100169.94;5061927;28;20029;-41
2023/03/25 07:05:20;;;;;;;17.90;2.83;;;;;;;11.89;65.63;100185.66;5061446;28;20120;-44
2023/03/25 07:07:45;;;;;;;19.05;3.35;;;;;;;12.15;65.08;100167.25;5057955;28;20043;-40
2023/03/25 07:10:12;;;;;;;18.98;2.80;;;;;;;11.92;65.43;100171.72;5061587;28;20044;-43
2023/03/25 07:12:37;;;;;;;20.00;3.13;;;;;;;12.26;64.51;100188.16;5059099;28;20062;-38
2023/03/25 07:15:03;;;;;;;18.20;3.00;;;;;;;12.34;64.33;100181.13;5060396;28;20045;-41
2023/03/25 07:17:29;;;;;;;22.67;2.80;;;;;;;12.24;64.16;100189.88;5057473;28;20172;-42
2023/03/25 07:19:54;;;;;;;19.73;3.03;;;;;;;12.00;65.06;100180.41;5065323;28;20475;-40
2023/03/25 07:22:19;;;;;;;22.48;3.45;;;;;;;12.03;64.73;100193.44;5064919;28;20032;-42
2023/03/25 07:24:45;;;;;;;16.83;2.70;;;;;;;12.46;63.23;100183.66;5065029;28;20118;-44
2023/03/25 07:27:12;;;;;;;18.85;3.00;;;;;;;12.24;63.24;100187.28;5068545;28;20035;-41
2023/03/25 07:29:38;;;;;;;21.90;2.67;;;;;;;12.52;63.70;100183.63;5060738;28;20047;-41
2023/03/25 07:32:04;;;;;;;21.88;2.90;;;;;;;12.38;63.79;100206.38;5064681;28;20406;-41
2023/03/25 07:34:30;;;;;;;17.92;2.80;;;;;;;12.38;64.04;100186.31;5060876;28;20047;-40
2023/03/25 07:36:55;;;;;;;22.63;3.17;;;;;;;12.50;63.38;100190.63;5065436;28;20024;-41
2023/03/25 07:39:21;;;;;;;23.40;3.15;;;;;;;12.62;63.24;100180.09;5065603;28;20032;-42
2023/03/25 07:41:46;;;;;;;20.65;2.83;;;;;;;12.51;62.95;100200.19;5060453;28;20043;-36
2023/03/25 07:44:13;;;;;;;19.85;2.78;;;;;;;12.47;63.02;100182.78;5063841;28;20036;-41
2023/03/25 07:46:38;;;;;;;24.58;3.05;;;;;;;12.47;63.03;100190.63;5060504;28;20052;-42
2023/03/25 07:49:04;;;;;;;18.73;2.97;;;;;;;12.29;63.15;100196.81;5066712;28;20494;-40
2023/03/25 07:51:29;;;;;;;19.25;2.70;;;;;;;12.75;61.99;100183.50;5064616;28;20033;-40
2023/03/25 07:53:54;;;;;;;15.60;2.42;;;;;;;12.59;62.50;100185.34;5067287;28;20039;-43
2023/03/25 07:56:20;;;;;;;17.05;2.63;;;;;;;12.97;61.95;100201.66;5065105;28;20031;-43
2023/03/25 07:58:46;;;;;;;16.65;2.92;;;;;;;12.54;62.74;100200.19;5062999;28;20047;-43
2023/03/25 08:01:11;;;;;;;20.17;3.75;;;;;;;13.12;61.43;100197.19;5068879;28;20028;-42
2023/03/25 08:03:38;;;;;;;25.23;3.20;;;;;;;12.78;61.85;100209.63;5060706;28;20037;-42
2023/03/25 08:06:04;;;;;;;19.65;2.67;;;;;;;12.58;62.08;100200.16;5064663;28;20032;-41
2023/03/25 08:08:30;;;;;;;26.88;3.33;;;;;;;12.62;62.95;100208.00;5065927;28;20054;-40
2023/03/25 08:10:56;;;;;;;19.73;3.08;;;;;;;12.56;62.51;100207.13;5070102;28;20036;-39
2023/03/25 08:13:21;;;;;;;23.20;3.22;;;;;;;12.29;63.13;100209.91;5065855;28;20036;-41
2023/03/25 08:15:47;;;;;;;19.13;2.85;;;;;;;12.81;62.32;100225.28;5059358;28;20074;-40
2023/03/25 08:18:12;;;;;;;14.95;2.83;;;;;;;12.92;62.04;100210.44;5063182;28;20040;-41
2023/03/25 08:20:38;;;;;;;16.95;2.90;;;;;;;13.17;61.22;100221.63;5059825;28;20457;-46
2023/03/25 08:23:09;;;;;;;23.52;3.55;;;;;;;12.86;61.95;100213.97;5064417;28;20132;-41
2023/03/25 08:25:39;;;;;;;21.63;3.33;;;;;;;12.67;62.02;100217.56;5061810;28;20115;-39
2023/03/25 08:28:05;;;;;;;21.00;3.13;;;;;;;12.76;62.68;100230.56;5065104;28;20059;-38
2023/03/25 08:30:38;;;;;;;21.58;3.05;;;;;;;12.74;62.27;100226.25;5060462;28;20056;-41
2023/03/25 08:33:08;;;;;;;22.80;3.30;;;;;;;12.93;62.32;100228.72;5063068;28;20036;-42
2023/03/25 08:35:36;;;;;;;25.05;3.53;;;;;;;13.25;61.35;100225.03;5058999;28;20522;-41
2023/03/25 08:38:04;;;;;;;20.13;3.15;;;;;;;12.63;62.67;100231.50;5063281;28;20052;-42
2023/03/25 08:40:30;;;;;;;20.05;2.70;;;;;;;13.16;61.43;100249.53;5059558;28;20050;-41
2023/03/25 08:42:56;;;;;;;29.17;3.53;;;;;;;12.88;62.14;100235.72;5063387;28;20036;-41
2023/03/25 08:45:21;;;;;;;25.27;3.40;;;;;;;13.26;61.44;100238.13;5064066;28;20043;-43
2023/03/25 08:47:47;;;;;;;24.90;2.97;;;;;;;13.59;60.43;100230.88;5059902;28;20021;-41
2023/03/25 08:50:12;;;;;;;23.95;3.47;;;;;;;13.11;61.77;100230.38;5061477;28;20060;-40
2023/03/25 08:52:37;;;;;;;21.55;3.60;;;;;;;13.30;61.07;100234.59;5060333;28;20465;-42
2023/03/25 08:55:06;;;;;;;19.85;3.22;;;;;;;13.15;61.70;100249.53;5062080;28;20032;-41
2023/03/25 08:57:33;;;;;;;22.42;3.30;;;;;;;13.18;61.51;100237.28;5060397;28;20025;-40
2023/03/25 08:59:59;;;;;;;21.98;3.35;;;;;;;13.20;61.17;100253.00;5063381;28;20225;-40
2023/03/25 09:02:25;;;;;;;21.40;3.42;;;;;;;13.15;61.39;100254.78;5065913;28;20128;-38
2023/03/25 09:04:50;;;;;;;21.67;3.38;;;;;;;13.00;61.83;100242.63;5061955;28;20376;-42
2023/03/25 09:07:18;;;;;;;23.65;3.50;;;;;;;13.19;61.38;100248.63;5064652;28;20071;-40
2023/03/25 09:09:45;;;;;;;20.20;3.17;;;;;;;13.05;62.19;100253.09;5061838;28;20554;-39
2023/03/25 09:12:11;;;;;;;26.52;3.58;;;;;;;13.32;61.05;100252.91;5065503;28;20120;-43
2023/03/25 09:14:36;;;;;;;27.33;3.85;;;;;;;13.47;61.17;100260.66;5062864;28;20078;-41
2023/03/25 09:17:02;;;;;;;22.80;3.53;;;;;;;13.15;61.89;100263.50;5066250;28;20753;-44
2023/03/25 09:19:27;;;;;;;27.38;4.22;;;;;;;13.26;61.25;100271.28;5065129;28;20025;-42
2023/03/25 09:21:53;;;;;;;22.92;3.63;;;;;;;13.04;61.24;100264.44;5060877;28;20032;-44
2023/03/25 09:24:20;;;;;;;23.17;3.40;;;;;;;13.10;62.15;100265.25;5064611;28;20074;-42
2023/03/25 09:26:46;;;;;;;26.38;4.53;;;;;;;13.38;61.43;100258.97;5061535;28;20055;-39
2023/03/25 09:29:11;;;;;;;25.27;3.58;;;;;;;13.52;60.51;100261.47;5062901;28;20444;-44
2023/03/25 09:31:36;;;;;;;26.85;3.25;;;;;;;13.25;61.13;100266.91;5060309;28;20044;-41
2023/03/25 09:34:02;;;;;;;29.35;4.20;;;;;;;13.10;61.54;100273.09;5063965;28;20040;-42
2023/03/25 09:36:27;;;;;;;28.20;3.90;;;;;;;13.57;60.09;100250.97;5058864;28;20055;-41
2023/03/25 09:38:52;;;;;;;18.73;3.38;;;;;;;13.48;60.61;100270.22;5064049;28;20090;-41
2023/03/25 09:41:56;;;;;;;29.05;3.47;;;;;;;13.48;59.66;100256.28;5063234;28;20032;-41
2023/03/25 09:44:58;;;;;;;21.38;3.65;;;;;;;13.37;59.76;100267.69;5030104;28;20029;-42
2023/03/25 09:47:25;;;;;;;25.88;3.10;;;;;;;13.73;59.28;100265.66;5057533;28;20032;-42
2023/03/25 09:49:57;;;;;;;28.40;3.85;;;;;;;13.77;59.48;100276.09;5060386;28;20502;-40
2023/03/25 09:52:37;;;;;;;21.23;3.80;;;;;;;13.54;59.52;100269.34;5062863;28;20087;-42
2023/03/25 09:55:10;;;;;;;19.33;3.13;;;;;;;13.25;60.37;100277.38;5060009;28;20040;-41
2023/03/25 09:57:44;;;;;;;26.83;4.15;;;;;;;13.36;60.71;100275.56;5061101;28;20079;-40
2023/03/25 10:00:15;;;;;;;;;;;;;;;13.67;59.38;100274.44;5062439;28;20056;-42
2023/03/25 10:03:02;;;;;;;31.52;3.70;;;;;;;13.59;59.45;100291.09;5057488;28;19919;-43
2023/03/25 10:05:47;;;;;;;25.77;4.05;;;;;;;13.33;60.02;100280.81;5061524;28;20035;-40
2023/03/25 10:08:23;;;;;;;29.85;4.18;;;;;;;14.11;58.32;100294.09;5057705;28;20048;-42
2023/03/25 10:11:11;;;;;;;25.17;3.83;;;;;;;13.73;58.57;100294.47;5057596;28;20036;-41
2023/03/25 10:13:46;;;;;;;34.58;4.28;;;;;;;13.73;59.51;100302.31;5060871;28;20044;-41
2023/03/25 10:16:24;;;;;;;22.23;3.58;;;;;;;14.08;58.51;100292.41;5056907;28;20028;-41
2023/03/25 10:19:26;;;;;;;27.13;4.07;;;;;;;14.48;57.57;100299.84;5057626;28;20380;-43
2023/03/25 10:22:23;;;;;;;23.20;3.92;;;;;;;14.11;57.51;100302.84;5058160;28;20042;-42
2023/03/25 10:24:57;;;;;;;25.98;3.70;;;;;;;14.05;58.31;100310.75;5057306;28;20036;-40
2023/03/25 10:27:37;;;;;;;30.30;4.85;;;;;;;14.10;58.52;100298.47;5061458;28;20029;-41
2023/03/25 10:30:02;;;;;;;23.88;3.30;;;;;;;14.02;58.06;100309.94;5057256;28;20051;-42
2023/03/25 10:32:33;;;;;;;22.98;3.80;;;;;;;13.95;58.41;100316.13;5057268;28;20161;-40
2023/03/25 10:35:02;;;;;;;28.10;3.83;;;;;;;13.83;58.04;100301.38;5061352;28;20032;-41
2023/03/25 10:37:32;;;;;;;29.20;3.85;;;;;;;13.93;57.75;100325.72;5057576;28;20029;-43
2023/03/25 10:40:13;;;;;;;21.48;3.17;;;;;;;14.38;57.50;100306.97;5060881;28;20036;-43
2023/03/25 10:42:46;;;;;;;30.45;4.00;;;;;;;13.90;58.42;100324.03;5057840;28;20468;-43
2023/03/25 10:45:14;;;;;;;25.90;4.33;;;;;;;13.48;58.84;100327.00;5061672;28;20016;-42
2023/03/25 10:47:43;;;;;;;23.48;3.83;;;;;;;13.97;57.70;100320.44;5057546;28;20557;-40
2023/03/25 10:50:15;;;;;;;25.00;3.70;;;;;;;13.82;58.46;100331.94;5061448;28;20029;-40
2023/03/25 10:52:41;;;;;;;21.35;3.35;;;;;;;13.31;59.12;100334.94;5058580;28;20036;-43
2023/03/25 10:55:20;;;;;;;25.95;4.20;;;;;;;13.38;59.21;100319.19;5065619;28;20063;-40
2023/03/25 10:57:46;;;;;;;30.70;4.03;;;;;;;13.64;58.97;100349.56;5062739;28;20041;-43
2023/03/25 11:00:18;;;;;;;25.05;3.17;;;;;;;13.92;58.56;100332.72;5070122;28;20098;-42
2023/03/25 11:02:44;;;;;;;31.13;3.97;;;;;;;13.24;59.61;100341.09;5065168;28;20594;-42
2023/03/25 11:05:14;;;;;;;20.25;3.72;;;;;;;14.32;57.48;100335.84;5067854;28;20043;-42
2023/03/25 11:07:42;;;;;;;25.80;3.38;;;;;;;14.35;56.95;100334.94;5084753;22;20048;-46
2023/03/25 11:10:16;;;;;;;22.58;3.67;;;;;;;14.46;56.70;100336.59;5086522;28;20027;-47
2023/03/25 11:12:47;;;;;;;17.23;3.30;;;;;;;14.92;55.57;100329.03;5081996;28;20036;-44
2023/03/25 11:15:19;;;;;;;20.73;3.28;;;;;;;14.66;55.81;100330.25;5087170;28;20534;-45
2023/03/25 11:17:46;;;;;;;31.52;3.92;;;;;;;14.02;56.98;100350.13;5090425;28;20031;-44
2023/03/25 11:20:27;;;;;;;23.27;3.25;;;;;;;14.05;56.61;100339.59;5106555;28;20378;-43
2023/03/25 11:22:53;;;;;;;26.52;3.70;;;;;;;14.30;57.61;100339.34;5103201;28;20039;-51
2023/03/25 11:25:31;;;;;;;24.10;3.95;;;;;;;14.37;56.86;100328.81;5107222;27;20031;-44
2023/03/25 11:28:04;;;;;;;26.88;3.67;;;;;;;14.76;56.15;100356.34;5103813;27;20058;-45
2023/03/25 11:30:30;;;;;;;25.20;3.55;;;;;;;15.01;55.57;100336.78;5103309;27;20397;-54